createdAt,value
2018-03-18T00:02:21.399Z,77.60
2018-03-18T00:04:48.458Z,76.80
2018-03-18T00:07:15.481Z,76.70
2018-03-18T00:09:44.182Z,76.90
2018-03-18T00:12:10.936Z,77.00
2018-03-18T00:14:38.381Z,77.10
2018-03-18T00:17:04.630Z,77.00
2018-03-18T00:19:31.618Z,76.60
2018-03-18T00:21:58.438Z,76.90
2018-03-18T00:24:25.450Z,77.10
2018-03-18T00:26:52.362Z,77.00
2018-03-18T00:29:18.606Z,77.20
2018-03-18T00:31:45.374Z,77.10
2018-03-18T00:34:12.045Z,76.90
2018-03-18T00:36:38.278Z,76.80
2018-03-18T00:39:06.005Z,76.70
2018-03-18T00:41:32.606Z,76.70
2018-03-18T00:43:59.597Z,76.80
2018-03-18T00:46:25.927Z,76.80
2018-03-18T00:48:53.979Z,76.50
2018-03-18T00:51:34.049Z,76.40
2018-03-18T00:54:00.881Z,76.40
2018-03-18T00:56:27.117Z,76.40
2018-03-18T00:58:54.075Z,76.10
2018-03-18T01:01:20.325Z,76.20
2018-03-18T01:03:46.577Z,76.00
2018-03-18T01:06:13.324Z,75.80
2018-03-18T01:08:39.553Z,75.50
2018-03-18T01:11:06.246Z,75.90
2018-03-18T01:13:33.224Z,75.80
2018-03-18T01:15:59.937Z,75.70
2018-03-18T01:18:26.936Z,75.80
2018-03-18T01:20:53.192Z,75.80
2018-03-18T01:23:19.869Z,75.60
2018-03-18T01:25:47.742Z,75.40
2018-03-18T01:28:14.727Z,75.60
2018-03-18T01:30:41.643Z,75.60
2018-03-18T01:33:09.846Z,75.90
2018-03-18T01:35:36.677Z,75.80
2018-03-18T01:38:03.702Z,76.10
2018-03-18T01:40:29.961Z,76.10
2018-03-18T01:42:56.965Z,76.40
2018-03-18T01:45:23.217Z,76.40
2018-03-18T01:47:51.925Z,76.90
2018-03-18T01:50:19.249Z,76.20
2018-03-18T01:52:57.949Z,76.80
2018-03-18T01:55:24.709Z,77.00
2018-03-18T01:57:50.981Z,77.00
2018-03-18T02:00:17.225Z,77.20
2018-03-18T02:02:44.486Z,77.00
2018-03-18T02:05:12.023Z,76.90
2018-03-18T02:07:38.269Z,76.90
2018-03-18T02:10:04.950Z,76.80
2018-03-18T02:12:32.160Z,76.90
2018-03-18T02:14:59.142Z,77.20
2018-03-18T02:17:26.190Z,77.00
2018-03-18T02:19:53.205Z,76.70
2018-03-18T02:22:20.270Z,76.70
2018-03-18T02:24:46.511Z,76.70
2018-03-18T02:27:12.755Z,77.00
2018-03-18T02:29:40.030Z,77.80
2018-03-18T02:32:07.582Z,77.10
2018-03-18T02:34:35.151Z,76.90
2018-03-18T02:37:02.138Z,76.80
2018-03-18T02:39:28.422Z,76.70
2018-03-18T02:41:54.847Z,76.70
2018-03-18T02:44:21.098Z,76.60
2018-03-18T02:46:48.193Z,77.30
2018-03-18T02:49:15.618Z,76.40
2018-03-18T02:51:42.631Z,76.20
2018-03-18T02:54:10.150Z,76.10
2018-03-18T02:56:36.402Z,75.90
2018-03-18T02:59:03.225Z,75.60
2018-03-18T03:01:31.089Z,75.90
2018-03-18T03:03:58.070Z,75.90
2018-03-18T03:06:25.020Z,75.90
2018-03-18T03:08:51.291Z,76.10
2018-03-18T03:11:17.529Z,76.20
2018-03-18T03:13:44.073Z,75.60
2018-03-18T03:16:10.334Z,76.10
2018-03-18T03:18:37.433Z,76.00
2018-03-18T03:21:04.330Z,75.90
2018-03-18T03:23:31.182Z,75.70
2018-03-18T03:25:58.186Z,74.60
2018-03-18T03:28:24.453Z,74.60
2018-03-18T03:30:51.218Z,75.30
2018-03-18T03:33:18.723Z,75.30
2018-03-18T03:35:45.833Z,75.20
2018-03-18T03:38:12.831Z,75.40
2018-03-18T03:40:39.097Z,75.40
2018-03-18T03:43:05.665Z,75.30
2018-03-18T03:45:32.634Z,75.00
2018-03-18T03:47:58.998Z,75.00
2018-03-18T03:50:25.894Z,75.00
2018-03-18T03:52:52.886Z,75.70
2018-03-18T03:55:19.695Z,75.40
2018-03-18T03:57:46.689Z,74.80
2018-03-18T04:00:13.705Z,74.80
2018-03-18T04:02:40.697Z,75.10
2018-03-18T04:05:07.361Z,75.00
2018-03-18T04:07:33.607Z,74.60
2018-03-18T04:09:59.853Z,74.70
2018-03-18T04:12:27.129Z,74.60
2018-03-18T04:14:54.113Z,74.60
2018-03-18T04:17:21.123Z,74.60
2018-03-18T04:19:48.138Z,74.30
2018-03-18T04:22:14.970Z,74.30
2018-03-18T04:24:41.230Z,74.20
2018-03-18T04:27:07.486Z,74.40
2018-03-18T04:29:35.161Z,74.60
2018-03-18T04:32:02.625Z,74.40
2018-03-18T04:34:30.281Z,74.70
2018-03-18T04:36:57.009Z,74.60
2018-03-18T04:39:23.266Z,75.30
2018-03-18T04:41:50.254Z,73.60
2018-03-18T04:44:16.865Z,73.60
2018-03-18T04:46:43.845Z,73.70
2018-03-18T04:49:10.274Z,73.70
2018-03-18T04:51:36.990Z,73.80
2018-03-18T04:54:04.470Z,73.10
2018-03-18T04:56:32.335Z,73.20
2018-03-18T04:58:59.337Z,73.30
2018-03-18T05:01:26.440Z,73.30
2018-03-18T05:03:53.458Z,73.80
2018-03-18T05:06:19.694Z,73.70
2018-03-18T05:08:45.970Z,74.10
2018-03-18T05:11:13.017Z,74.30
2018-03-18T05:13:40.081Z,73.60
2018-03-18T05:16:06.768Z,73.60
2018-03-18T05:18:33.013Z,73.40
2018-03-18T05:20:59.270Z,73.40
2018-03-18T05:23:26.024Z,72.90
2018-03-18T05:25:53.016Z,72.70
2018-03-18T05:28:19.921Z,72.70
2018-03-18T05:30:47.704Z,73.10
2018-03-18T05:33:15.184Z,73.00
2018-03-18T05:35:41.913Z,73.00
2018-03-18T05:38:08.926Z,73.40
2018-03-18T05:40:35.169Z,73.30
2018-03-18T05:43:01.457Z,73.40
2018-03-18T05:45:27.718Z,72.70
2018-03-18T05:47:54.085Z,72.90
2018-03-18T05:50:21.614Z,72.60
2018-03-18T05:52:47.853Z,72.60
2018-03-18T05:55:14.649Z,72.70
2018-03-18T05:57:41.632Z,73.00
2018-03-18T06:00:08.353Z,72.90
2018-03-18T06:02:34.617Z,72.50
2018-03-18T06:05:00.867Z,71.90
2018-03-18T06:07:27.418Z,72.00
2018-03-18T06:09:53.697Z,72.20
2018-03-18T06:12:21.150Z,72.30
2018-03-18T06:14:48.161Z,72.10
2018-03-18T06:17:14.441Z,72.00
2018-03-18T06:19:41.783Z,71.40
2018-03-18T06:22:09.459Z,71.40
2018-03-18T06:24:36.457Z,71.40
2018-03-18T06:27:03.229Z,71.40
2018-03-18T06:29:29.991Z,71.60
2018-03-18T06:31:57.572Z,71.80
2018-03-18T06:34:25.239Z,71.50
2018-03-18T06:36:52.216Z,70.90
2018-03-18T06:39:18.529Z,70.90
2018-03-18T06:41:45.889Z,70.80
2018-03-18T06:44:12.885Z,71.00
2018-03-18T06:46:39.231Z,71.00
2018-03-18T06:49:05.486Z,71.00
2018-03-18T06:51:32.351Z,71.20
2018-03-18T06:54:00.014Z,70.50
2018-03-18T06:56:27.349Z,70.40
2018-03-18T06:58:53.593Z,70.40
2018-03-18T07:01:20.142Z,70.50
2018-03-18T07:03:46.381Z,70.60
2018-03-18T07:06:13.410Z,70.50
2018-03-18T07:08:39.985Z,70.40
2018-03-18T07:11:07.481Z,69.70
2018-03-18T07:13:33.753Z,69.80
2018-03-18T07:16:00.750Z,69.70
2018-03-18T07:18:27.022Z,69.60
2018-03-18T07:20:53.694Z,69.80
2018-03-18T07:23:20.354Z,69.30
2018-03-18T07:25:47.356Z,69.20
2018-03-18T07:28:13.605Z,69.20
2018-03-18T07:30:40.393Z,69.30
2018-03-18T07:33:07.554Z,69.60
2018-03-18T07:35:34.157Z,69.40
2018-03-18T07:38:00.418Z,69.00
2018-03-18T07:40:27.413Z,67.80
2018-03-18T07:42:53.739Z,67.70
2018-03-18T07:45:20.042Z,68.50
2018-03-18T07:47:47.166Z,67.90
2018-03-18T07:50:14.045Z,68.00
2018-03-18T07:52:41.671Z,67.40
2018-03-18T07:55:08.465Z,67.40
2018-03-18T07:57:35.454Z,67.10
2018-03-18T08:00:01.702Z,67.20
2018-03-18T08:02:28.297Z,67.80
2018-03-18T08:04:55.285Z,67.10
2018-03-18T08:07:23.009Z,67.00
2018-03-18T08:09:50.397Z,66.40
2018-03-18T08:12:16.663Z,66.30
2018-03-18T08:14:42.945Z,66.60
2018-03-18T08:17:10.502Z,66.50
2018-03-18T08:19:37.513Z,66.60
2018-03-18T08:22:04.294Z,66.60
2018-03-18T08:24:31.279Z,66.70
2018-03-18T08:26:57.525Z,66.60
2018-03-18T08:29:23.789Z,65.60
2018-03-18T08:31:50.462Z,64.90
2018-03-18T08:34:17.464Z,65.50
2018-03-18T08:36:44.998Z,65.40
2018-03-18T08:39:11.245Z,65.20
2018-03-18T08:41:37.526Z,65.20
2018-03-18T08:44:03.797Z,65.30
2018-03-18T08:46:31.349Z,65.00
2018-03-18T08:48:58.929Z,63.90
2018-03-18T08:51:25.646Z,63.90
2018-03-18T08:53:53.817Z,63.80
2018-03-18T08:56:20.082Z,63.80
2018-03-18T08:58:47.125Z,64.10
2018-03-18T09:01:14.132Z,64.70
2018-03-18T09:03:40.383Z,64.60
2018-03-18T09:06:07.502Z,64.20
2018-03-18T09:08:33.757Z,63.90
2018-03-18T09:11:00.022Z,63.70
2018-03-18T09:13:27.381Z,62.90
2018-03-18T09:15:55.049Z,63.20
2018-03-18T09:18:23.150Z,64.60
2018-03-18T09:20:49.421Z,63.80
2018-03-18T09:23:15.669Z,64.00
2018-03-18T09:25:42.254Z,62.90
2018-03-18T09:28:09.246Z,63.60
2018-03-18T09:30:36.129Z,63.50
2018-03-18T09:33:03.011Z,63.00
2018-03-18T09:35:30.465Z,64.50
2018-03-18T09:37:57.454Z,63.20
2018-03-18T09:40:23.709Z,63.20
2018-03-18T09:42:50.491Z,61.60
2018-03-18T09:45:18.061Z,61.10
2018-03-18T09:47:45.050Z,61.60
2018-03-18T09:50:11.966Z,61.50
2018-03-18T09:52:38.950Z,61.70
2018-03-18T09:55:06.155Z,61.70
2018-03-18T09:57:32.510Z,60.70
2018-03-18T09:59:59.510Z,60.70
2018-03-18T10:02:26.046Z,60.70
2018-03-18T10:04:52.764Z,60.50
2018-03-18T10:07:19.018Z,60.00
2018-03-18T10:09:45.319Z,60.20
2018-03-18T10:12:13.080Z,60.50
2018-03-18T10:14:40.073Z,60.50
2018-03-18T10:17:06.814Z,60.50
2018-03-18T10:19:33.145Z,59.60
2018-03-18T10:22:00.299Z,59.00
2018-03-18T10:24:26.553Z,58.90
2018-03-18T10:26:52.803Z,59.10
2018-03-18T10:29:19.066Z,59.30
2018-03-18T10:31:46.062Z,58.70
2018-03-18T10:34:12.397Z,58.80
2018-03-18T10:36:39.329Z,58.80
2018-03-18T10:39:05.593Z,58.80
2018-03-18T10:41:31.881Z,58.40
2018-03-18T10:43:59.750Z,58.10
2018-03-18T10:46:27.417Z,58.70
2018-03-18T10:48:54.422Z,59.30
2018-03-18T10:51:21.226Z,59.20
2018-03-18T10:53:48.769Z,59.90
2018-03-18T10:56:15.030Z,59.20
2018-03-18T10:58:42.030Z,57.00
2018-03-18T11:01:10.247Z,57.00
2018-03-18T11:03:39.281Z,57.70
2018-03-18T11:06:05.542Z,57.70
2018-03-18T11:08:32.121Z,57.90
2018-03-18T11:10:59.167Z,59.50
2018-03-18T11:13:26.366Z,58.90
2018-03-18T11:15:53.169Z,58.80
2018-03-18T11:18:19.417Z,58.60
2018-03-18T11:20:46.410Z,59.10
2018-03-18T11:23:12.764Z,59.10
2018-03-18T11:25:39.438Z,58.80
2018-03-18T11:28:05.677Z,58.00
2018-03-18T11:30:33.254Z,57.90
2018-03-18T11:33:00.686Z,58.30
2018-03-18T11:35:28.040Z,57.20
2018-03-18T11:37:54.302Z,57.20
2018-03-18T11:40:21.960Z,57.60
2018-03-18T11:42:48.334Z,57.50
2018-03-18T11:45:15.910Z,57.80
2018-03-18T11:47:42.169Z,57.50
2018-03-18T11:50:09.374Z,57.20
2018-03-18T11:52:36.305Z,57.50
2018-03-18T11:55:03.165Z,57.40
2018-03-18T11:57:30.149Z,56.70
2018-03-18T11:59:57.313Z,56.70
2018-03-18T12:02:23.574Z,57.40
2018-03-18T12:04:50.237Z,57.00
2018-03-18T12:07:17.285Z,57.70
2018-03-18T12:09:43.558Z,57.40
2018-03-18T12:12:10.585Z,57.80
2018-03-18T12:14:37.630Z,58.30
2018-03-18T12:17:04.977Z,59.50
2018-03-18T12:19:32.025Z,57.30
2018-03-18T12:21:58.731Z,57.30
2018-03-18T12:24:24.977Z,57.80
2018-03-18T12:26:51.235Z,58.00
2018-03-18T12:29:18.005Z,57.20
2018-03-18T12:31:45.628Z,57.50
2018-03-18T12:34:11.902Z,57.60
2018-03-18T12:36:38.646Z,57.20
2018-03-18T12:39:06.317Z,58.20
2018-03-18T12:41:33.166Z,58.20
2018-03-18T12:44:00.264Z,57.20
2018-03-18T12:46:26.530Z,57.20
2018-03-18T12:48:52.857Z,57.80
2018-03-18T12:51:20.599Z,58.10
2018-03-18T12:53:47.317Z,57.90
2018-03-18T12:56:14.762Z,58.10
2018-03-18T12:58:41.066Z,58.10
2018-03-18T13:01:07.323Z,57.80
2018-03-18T13:03:34.348Z,57.80
2018-03-18T13:06:00.759Z,57.90
2018-03-18T13:08:27.076Z,57.60
2018-03-18T13:10:54.080Z,57.90
2018-03-18T13:13:21.014Z,57.90
2018-03-18T13:15:47.927Z,58.00
2018-03-18T13:18:14.934Z,57.00
2018-03-18T13:20:41.440Z,57.00
2018-03-18T13:23:07.717Z,57.40
2018-03-18T13:25:34.541Z,57.60
2018-03-18T13:28:01.660Z,57.50
2018-03-18T13:30:29.517Z,59.00
2018-03-18T13:32:57.212Z,60.10
2018-03-18T13:35:24.032Z,60.00
2018-03-18T13:37:51.013Z,59.50
2018-03-18T13:40:18.033Z,59.40
2018-03-18T13:42:45.046Z,58.10
2018-03-18T13:45:11.305Z,58.10
2018-03-18T13:47:38.329Z,59.70
2018-03-18T13:50:05.273Z,59.70
2018-03-18T13:52:31.985Z,59.00
2018-03-18T13:54:58.714Z,59.30
2018-03-18T13:57:25.822Z,58.40
2018-03-18T13:59:52.107Z,58.40
2018-03-18T14:02:19.122Z,59.20
2018-03-18T14:04:45.382Z,59.10
2018-03-18T14:07:12.022Z,59.40
2018-03-18T14:09:38.281Z,59.20
2018-03-18T14:12:05.272Z,58.90
2018-03-18T14:14:31.759Z,58.90
2018-03-18T14:16:59.526Z,59.00
2018-03-18T14:19:26.597Z,59.60
2018-03-18T14:21:52.861Z,60.40
2018-03-18T14:24:19.973Z,59.50
2018-03-18T14:26:47.741Z,59.50
2018-03-18T14:29:15.170Z,58.80
2018-03-18T14:31:41.869Z,58.80
2018-03-18T14:34:08.597Z,59.60
2018-03-18T14:36:36.171Z,60.50
2018-03-18T14:39:02.973Z,60.40
2018-03-18T14:41:29.267Z,60.30
2018-03-18T14:43:55.525Z,60.20
2018-03-18T14:46:22.317Z,59.80
2018-03-18T14:48:50.037Z,59.80
2018-03-18T14:51:16.775Z,59.80
2018-03-18T14:53:43.569Z,60.10
2018-03-18T14:56:09.832Z,60.70
2018-03-18T14:58:36.086Z,61.80
2018-03-18T15:01:02.808Z,60.70
2018-03-18T15:03:29.872Z,62.20
2018-03-18T15:05:56.137Z,61.40
2018-03-18T15:08:22.639Z,61.20
2018-03-18T15:10:48.917Z,61.20
2018-03-18T15:13:15.266Z,61.00
2018-03-18T15:15:42.448Z,60.90
2018-03-18T15:18:09.454Z,61.60
2018-03-18T15:20:35.721Z,61.60
2018-03-18T15:23:03.470Z,62.50
2018-03-18T15:25:30.569Z,62.40
2018-03-18T15:27:57.558Z,61.70
2018-03-18T15:30:24.523Z,61.70
2018-03-18T15:32:51.270Z,61.50
2018-03-18T15:35:18.471Z,62.30
2018-03-18T15:37:45.472Z,61.10
2018-03-18T15:40:11.750Z,61.10
2018-03-18T15:42:39.113Z,61.90
2018-03-18T15:45:06.136Z,62.40
2018-03-18T15:47:33.025Z,62.40
2018-03-18T15:50:00.473Z,62.30
2018-03-18T15:52:27.752Z,62.10
2018-03-18T15:54:54.269Z,62.10
2018-03-18T15:57:21.269Z,62.60
2018-03-18T15:59:47.517Z,62.50
2018-03-18T16:02:13.825Z,62.70
2018-03-18T16:04:40.094Z,64.20
2018-03-18T16:07:06.718Z,62.80
2018-03-18T16:09:33.018Z,62.90
2018-03-18T16:12:00.007Z,63.40
2018-03-18T16:14:26.325Z,63.50
2018-03-18T16:19:50.642Z,62.90
2018-03-18T16:22:16.921Z,62.90
2018-03-18T16:24:44.553Z,64.00
2018-03-18T16:27:11.214Z,63.80
2018-03-18T16:29:50.657Z,64.00
2018-03-18T16:32:17.590Z,63.90
2018-03-18T16:34:43.862Z,64.00
2018-03-18T16:37:11.529Z,63.50
2018-03-18T16:39:38.966Z,64.00
2018-03-18T16:42:05.966Z,63.90
2018-03-18T16:44:32.808Z,63.10
2018-03-18T16:46:59.633Z,63.10
2018-03-18T16:49:27.199Z,64.30
2018-03-18T16:51:54.650Z,64.30
2018-03-18T16:54:22.105Z,64.50
2018-03-18T16:56:48.351Z,64.50
2018-03-18T16:59:15.357Z,63.80
2018-03-18T17:01:41.671Z,63.80
2018-03-18T17:04:08.492Z,64.10
2018-03-18T17:06:35.541Z,63.90
2018-03-18T17:09:02.647Z,64.10
2018-03-18T17:11:29.311Z,64.10
2018-03-18T17:13:57.524Z,63.50
2018-03-18T17:16:25.317Z,64.30
2018-03-18T17:18:51.576Z,64.10
2018-03-18T17:21:17.835Z,63.80
2018-03-18T17:23:44.510Z,64.50
2018-03-18T17:26:12.278Z,64.50
2018-03-18T17:28:39.281Z,64.10
2018-03-18T17:31:06.282Z,64.00
2018-03-18T17:33:34.041Z,65.00
2018-03-18T17:36:01.707Z,65.40
2018-03-18T17:38:28.712Z,65.20
2018-03-18T17:40:55.617Z,65.20
2018-03-18T17:43:23.174Z,65.20
2018-03-18T17:46:04.414Z,65.10
2018-03-18T17:48:43.011Z,65.00
2018-03-18T17:51:21.808Z,65.10
2018-03-18T17:54:01.129Z,65.10
2018-03-18T17:56:35.197Z,65.60
2018-03-18T17:59:01.464Z,65.50
2018-03-18T18:01:28.983Z,65.60
2018-03-18T18:03:55.675Z,65.60
2018-03-18T18:06:24.139Z,64.80
2018-03-18T18:08:51.514Z,64.80
2018-03-18T18:11:18.533Z,64.80
2018-03-18T18:13:44.800Z,64.80
2018-03-18T18:16:12.370Z,65.50
2018-03-18T18:18:39.974Z,65.30
2018-03-18T18:21:06.249Z,65.20
2018-03-18T18:23:32.521Z,66.30
2018-03-18T18:25:58.814Z,65.40
2018-03-18T18:28:25.589Z,65.10
2018-03-18T18:30:52.664Z,65.40
2018-03-18T18:33:19.811Z,65.10
2018-03-18T18:35:46.657Z,65.50
2018-03-18T18:38:13.667Z,65.40
2018-03-18T18:40:40.468Z,65.40
2018-03-18T18:43:07.185Z,65.80
2018-03-18T18:45:34.196Z,66.00
2018-03-18T18:48:00.470Z,65.90
2018-03-18T18:50:29.080Z,66.00
2018-03-18T18:52:56.014Z,65.90
2018-03-18T18:55:23.001Z,66.30
2018-03-18T18:57:49.279Z,66.20
2018-03-18T19:00:15.827Z,66.60
2018-03-18T19:02:43.289Z,66.10
2018-03-18T19:05:09.554Z,66.70
2018-03-18T19:07:36.280Z,66.40
2018-03-18T19:10:03.317Z,67.20
2018-03-18T19:12:29.681Z,67.10
2018-03-18T19:14:56.525Z,66.80
2018-03-18T19:17:24.085Z,66.90
2018-03-18T19:19:51.445Z,67.00
2018-03-18T19:22:18.454Z,67.00
2018-03-18T19:24:45.251Z,67.00
2018-03-18T19:27:12.909Z,66.20
2018-03-18T19:29:40.002Z,66.40
2018-03-18T19:32:06.833Z,66.40
2018-03-18T19:34:33.081Z,66.70
2018-03-18T19:36:59.889Z,66.30
2018-03-18T19:39:27.454Z,67.00
2018-03-18T19:41:55.126Z,67.30
2018-03-18T19:44:22.128Z,67.00
2018-03-18T19:46:48.392Z,67.00
2018-03-18T19:49:15.782Z,67.20
2018-03-18T19:51:43.241Z,66.90
2018-03-18T19:54:10.845Z,66.80
2018-03-18T19:56:37.136Z,66.80
2018-03-18T19:59:04.806Z,66.70
2018-03-18T20:01:32.349Z,66.90
2018-03-18T20:03:59.798Z,66.60
2018-03-18T20:06:26.069Z,66.60
2018-03-18T20:08:53.061Z,67.10
2018-03-18T20:11:19.345Z,67.10
2018-03-18T20:13:46.356Z,66.90
2018-03-18T20:16:13.107Z,66.90
2018-03-18T20:18:39.905Z,66.90
2018-03-18T20:21:06.889Z,67.00
2018-03-18T20:23:33.704Z,67.00
2018-03-18T20:26:00.046Z,67.20
2018-03-18T20:28:27.737Z,67.10
2018-03-18T20:31:09.247Z,67.80
2018-03-18T20:33:35.961Z,67.00
2018-03-18T20:36:02.759Z,67.10
2018-03-18T20:38:30.233Z,67.30
2018-03-18T20:40:57.813Z,67.60
2018-03-18T20:43:24.651Z,67.60
2018-03-18T20:45:52.189Z,67.40
2018-03-18T20:48:18.885Z,67.40
2018-03-18T20:50:45.625Z,67.50
2018-03-18T20:53:12.546Z,67.50
2018-03-18T20:55:40.020Z,67.40
2018-03-18T20:58:07.514Z,67.30
2018-03-18T21:00:33.816Z,67.30
2018-03-18T21:03:00.797Z,67.80
2018-03-18T21:05:27.827Z,67.80
2018-03-18T21:07:54.587Z,67.80
2018-03-18T21:10:20.861Z,67.50
2018-03-18T21:12:47.134Z,67.40
2018-03-18T21:15:14.489Z,67.50
2018-03-18T21:17:42.277Z,67.70
2018-03-18T21:20:09.067Z,67.70
2018-03-18T21:22:35.369Z,67.60
2018-03-18T21:25:01.974Z,67.60
2018-03-18T21:27:29.361Z,67.80
2018-03-18T21:29:55.662Z,67.80
2018-03-18T21:32:23.172Z,67.20
2018-03-18T21:34:51.896Z,66.90
2018-03-18T21:37:19.069Z,67.50
2018-03-18T21:39:45.329Z,67.50
2018-03-18T21:42:13.093Z,67.40
2018-03-18T21:44:40.094Z,67.50
2018-03-18T21:47:06.705Z,67.50
2018-03-18T21:49:33.335Z,67.40
2018-03-18T21:52:15.284Z,68.20
2018-03-18T21:54:42.278Z,68.10
2018-03-18T21:57:09.290Z,68.00
2018-03-18T21:59:36.087Z,67.90
2018-03-18T22:02:02.806Z,67.80
2018-03-18T22:04:29.809Z,67.90
2018-03-18T22:06:56.110Z,67.90
2018-03-18T22:09:23.134Z,68.10
2018-03-18T22:11:49.406Z,68.10
2018-03-18T22:14:16.503Z,68.30
2018-03-18T22:16:43.105Z,68.30
2018-03-18T22:19:09.821Z,68.30
2018-03-18T22:21:36.073Z,68.20
2018-03-18T22:24:03.675Z,68.10
2018-03-18T22:26:30.369Z,68.10
2018-03-18T22:28:57.441Z,68.20
2018-03-18T22:31:24.486Z,68.20
2018-03-18T22:33:52.059Z,68.90
2018-03-18T22:36:20.150Z,69.00
2018-03-18T22:38:46.911Z,69.00
2018-03-18T22:41:13.630Z,68.70
2018-03-18T22:43:40.645Z,68.70
2018-03-18T22:46:06.901Z,68.70
2018-03-18T22:48:33.887Z,68.70
2018-03-18T22:51:01.566Z,68.70
2018-03-18T22:53:28.450Z,69.10
2018-03-18T22:55:54.711Z,68.90
2018-03-18T22:58:21.699Z,69.10
2018-03-18T23:00:47.975Z,69.10
2018-03-18T23:03:14.238Z,68.90
2018-03-18T23:05:40.578Z,68.90
2018-03-18T23:08:06.849Z,68.80
2018-03-18T23:10:33.098Z,68.70
2018-03-18T23:12:59.366Z,69.10
2018-03-18T23:15:27.752Z,68.50
2018-03-18T23:17:55.326Z,69.00
2018-03-18T23:20:22.176Z,69.00
2018-03-18T23:22:49.633Z,68.80
2018-03-18T23:25:17.006Z,68.50
2018-03-18T23:27:43.941Z,68.60
2018-03-18T23:30:11.382Z,69.00
2018-03-18T23:32:38.144Z,69.00
2018-03-18T23:35:05.190Z,68.90
2018-03-18T23:37:32.862Z,68.90
2018-03-18T23:39:59.855Z,68.10
2018-03-18T23:42:26.580Z,68.10
2018-03-18T23:44:53.270Z,68.30
2018-03-18T23:47:19.519Z,68.30
2018-03-18T23:49:46.159Z,68.10
2018-03-18T23:52:12.408Z,68.40
2018-03-18T23:54:39.817Z,68.50
2018-03-18T23:57:06.122Z,68.50
2018-03-18T23:59:33.129Z,68.60
